createdAt,value
2022-10-17T00:01:59.348Z,94.67
2022-10-17T00:04:25.726Z,95.05
2022-10-17T00:06:56.315Z,95.10
2022-10-17T00:09:22.648Z,95.19
2022-10-17T00:11:49.025Z,95.02
2022-10-17T00:14:19.629Z,94.68
2022-10-17T00:16:46.008Z,94.71
2022-10-17T00:19:12.359Z,94.57
2022-10-17T00:21:38.748Z,94.60
2022-10-17T00:24:58.684Z,94.84
2022-10-17T00:32:20.632Z,94.62
2022-10-17T00:34:47.164Z,94.92
2022-10-17T00:37:13.548Z,94.56
2022-10-17T00:39:40.932Z,94.93
2022-10-17T00:42:13.445Z,94.80
2022-10-17T00:44:40.777Z,94.91
2022-10-17T00:47:33.649Z,95.05
2022-10-17T00:52:30.940Z,94.66
2022-10-17T00:55:03.852Z,94.85
2022-10-17T00:57:31.783Z,94.85
2022-10-17T01:00:02.219Z,95.09
2022-10-17T01:02:28.923Z,94.89
2022-10-17T01:04:56.817Z,95.03
2022-10-17T01:07:23.433Z,95.33
2022-10-17T01:09:50.221Z,95.09
2022-10-17T01:12:25.798Z,94.93
2022-10-17T01:15:04.701Z,95.15
2022-10-17T01:17:57.628Z,95.26
2022-10-17T01:21:15.689Z,95.15
2022-10-17T01:24:29.541Z,95.01
2022-10-17T01:27:04.660Z,95.49
2022-10-17T01:30:17.403Z,95.12
2022-10-17T01:32:56.543Z,95.11
2022-10-17T01:35:33.103Z,95.30
2022-10-17T01:38:21.761Z,95.13
2022-10-17T01:40:59.219Z,94.97
2022-10-17T01:43:44.523Z,95.42
2022-10-17T01:46:23.301Z,95.25
2022-10-17T01:48:55.100Z,95.18
2022-10-17T01:51:41.159Z,95.37
2022-10-17T01:54:13.945Z,95.02
2022-10-17T01:56:59.751Z,95.41
2022-10-17T01:59:32.113Z,95.02
2022-10-17T02:01:59.527Z,95.04
2022-10-17T02:04:26.409Z,94.95
2022-10-17T02:06:52.748Z,95.08
2022-10-17T02:09:24.662Z,94.95
2022-10-17T02:12:37.835Z,95.04
2022-10-17T02:15:45.062Z,95.40
2022-10-17T02:18:43.527Z,95.20
2022-10-17T02:21:36.147Z,95.43
2022-10-17T02:24:16.848Z,95.43
2022-10-17T02:27:05.222Z,95.20
2022-10-17T02:29:38.313Z,95.21
2022-10-17T02:32:13.277Z,95.48
2022-10-17T02:34:49.232Z,95.45
2022-10-17T02:37:23.088Z,95.68
2022-10-17T02:39:51.369Z,95.93
2022-10-17T02:42:18.838Z,95.99
2022-10-17T02:44:46.905Z,96.11
2022-10-17T02:47:32.824Z,96.33
2022-10-17T02:49:59.760Z,96.42
2022-10-17T02:52:50.823Z,96.58
2022-10-17T02:55:27.099Z,96.71
2022-10-17T02:58:01.129Z,96.83
2022-10-17T03:00:29.612Z,96.48
2022-10-17T03:02:56.013Z,96.17
2022-10-17T03:05:32.616Z,96.43
2022-10-17T03:07:58.967Z,96.29
2022-10-17T03:10:25.375Z,96.75
2022-10-17T03:12:59.744Z,96.96
2022-10-17T03:15:43.624Z,96.74
2022-10-17T03:18:19.062Z,96.82
2022-10-17T03:20:45.413Z,97.01
2022-10-17T03:23:11.771Z,96.88
2022-10-17T03:25:38.133Z,97.09
2022-10-17T03:28:05.496Z,96.95
2022-10-17T03:30:32.570Z,97.04
2022-10-17T03:32:59.510Z,96.96
2022-10-17T03:35:27.104Z,96.85
2022-10-17T03:37:56.137Z,96.98
2022-10-17T03:40:22.508Z,97.00
2022-10-17T03:42:51.976Z,96.91
2022-10-17T03:45:30.610Z,97.01
2022-10-17T03:47:58.844Z,97.07
2022-10-17T03:51:04.060Z,97.14
2022-10-17T03:53:30.748Z,97.21
2022-10-17T03:56:51.991Z,96.96
2022-10-17T03:59:18.487Z,97.50
2022-10-17T04:01:45.046Z,97.21
2022-10-17T04:04:11.585Z,97.21
2022-10-17T04:06:38.197Z,97.13
2022-10-17T04:09:07.131Z,97.04
2022-10-17T04:11:34.105Z,96.72
2022-10-17T04:14:00.548Z,96.50
2022-10-17T04:16:27.188Z,96.38
2022-10-17T04:18:58.222Z,96.41
2022-10-17T04:21:26.533Z,96.98
2022-10-17T04:23:54.783Z,96.41
2022-10-17T04:26:23.529Z,96.61
2022-10-17T04:28:54.169Z,96.64
2022-10-17T04:31:23.709Z,96.91
2022-10-17T04:33:50.648Z,96.65
2022-10-17T04:36:20.142Z,96.66
2022-10-17T04:38:52.675Z,96.92
2022-10-17T04:41:34.136Z,96.51
2022-10-17T04:44:02.703Z,96.79
2022-10-17T04:46:29.240Z,96.36
2022-10-17T04:48:55.585Z,96.79
2022-10-17T04:51:39.106Z,96.59
2022-10-17T04:54:10.555Z,96.25
2022-10-17T04:56:36.918Z,96.97
2022-10-17T04:59:03.311Z,96.94
2022-10-17T05:01:37.675Z,97.36
2022-10-17T05:04:04.040Z,97.74
2022-10-17T05:06:31.516Z,97.46
2022-10-17T05:08:59.804Z,97.24
2022-10-17T05:11:28.641Z,97.10
2022-10-17T05:13:59.056Z,97.12
2022-10-17T05:16:49.391Z,97.24
2022-10-17T05:19:22.917Z,97.32
2022-10-17T05:22:17.197Z,97.18
2022-10-17T05:24:43.561Z,97.55
2022-10-17T05:27:43.041Z,97.18
2022-10-17T05:30:36.779Z,97.31
2022-10-17T05:33:35.535Z,97.65
2022-10-17T05:36:01.957Z,97.36
2022-10-17T05:38:34.452Z,97.69
2022-10-17T05:41:02.621Z,97.46
2022-10-17T05:43:32.081Z,97.28
2022-10-17T05:45:58.671Z,98.02
2022-10-17T05:48:25.348Z,98.03
2022-10-17T05:51:09.456Z,97.77
2022-10-17T05:53:41.548Z,97.98
2022-10-17T05:56:15.413Z,97.51
2022-10-17T05:58:54.227Z,97.50
2022-10-17T06:01:24.869Z,97.70
2022-10-17T06:03:51.234Z,97.43
2022-10-17T06:06:18.693Z,97.60
2022-10-17T06:08:52.164Z,97.57
2022-10-17T06:11:24.645Z,97.72
2022-10-17T06:13:52.117Z,97.66
2022-10-17T06:16:18.470Z,97.73
2022-10-17T06:18:44.898Z,98.04
2022-10-17T06:21:14.791Z,97.92
2022-10-17T06:23:41.321Z,97.82
2022-10-17T06:26:07.697Z,97.75
2022-10-17T06:28:35.070Z,97.96
2022-10-17T06:31:12.118Z,97.52
2022-10-17T06:33:38.944Z,97.48
2022-10-17T06:36:07.258Z,97.48
2022-10-17T06:38:34.768Z,98.04
2022-10-17T06:41:14.120Z,97.95
2022-10-17T06:43:48.579Z,97.72
2022-10-17T06:46:19.580Z,97.61
2022-10-17T06:48:46.130Z,97.21
2022-10-17T06:51:19.684Z,97.90
2022-10-17T06:53:46.133Z,97.99
2022-10-17T06:56:12.488Z,97.50
2022-10-17T06:58:40.046Z,97.38
2022-10-17T07:01:12.047Z,97.62
2022-10-17T07:03:40.165Z,97.60
2022-10-17T07:06:06.577Z,97.65
2022-10-17T07:08:32.979Z,97.83
2022-10-17T07:10:59.790Z,97.88
2022-10-17T07:13:26.158Z,97.63
2022-10-17T07:15:52.605Z,97.76
2022-10-17T07:18:19.056Z,97.72
2022-10-17T07:20:53.735Z,98.01
2022-10-17T07:23:20.451Z,97.42
2022-10-17T07:25:46.816Z,98.02
2022-10-17T07:28:14.780Z,97.70
2022-10-17T07:30:41.516Z,97.28
2022-10-17T07:33:08.036Z,97.48
2022-10-17T07:35:34.602Z,97.24
2022-10-17T07:38:01.033Z,97.48
2022-10-17T07:40:27.408Z,97.58
2022-10-17T07:42:55.817Z,97.80
2022-10-17T07:45:23.700Z,97.98
2022-10-17T07:47:50.151Z,97.70
2022-10-17T07:50:16.597Z,97.55
2022-10-17T07:52:43.323Z,97.42
2022-10-17T07:55:09.991Z,97.42
2022-10-17T07:57:36.354Z,97.29
2022-10-17T08:00:03.108Z,97.35
2022-10-17T08:02:29.764Z,97.41
2022-10-17T08:04:56.280Z,97.66
2022-10-17T08:07:26.791Z,97.46
2022-10-17T08:09:54.902Z,97.82
2022-10-17T08:12:21.976Z,97.81
2022-10-17T08:14:48.364Z,98.00
2022-10-17T08:17:14.849Z,98.37
2022-10-17T08:19:41.285Z,98.66
2022-10-17T08:22:08.422Z,98.85
2022-10-17T08:24:35.069Z,98.77
2022-10-17T08:27:01.612Z,98.92
2022-10-17T08:29:28.087Z,99.25
2022-10-17T08:31:58.681Z,99.22
2022-10-17T08:34:32.240Z,99.07
2022-10-17T08:37:16.430Z,99.19
2022-10-17T08:39:45.479Z,99.50
2022-10-17T08:42:33.448Z,99.38
2022-10-17T08:45:24.321Z,99.68
2022-10-17T08:48:02.285Z,99.36
2022-10-17T08:50:36.767Z,99.92
2022-10-17T08:53:19.917Z,99.74
2022-10-17T08:55:49.000Z,99.81
2022-10-17T08:58:22.414Z,99.81
2022-10-17T09:01:06.893Z,99.99
2022-10-17T09:03:47.504Z,100.00
2022-10-17T09:06:30.059Z,99.57
2022-10-17T09:09:15.584Z,99.89
2022-10-17T09:11:50.976Z,100.00
2022-10-17T09:14:23.428Z,99.64
2022-10-17T09:17:05.363Z,99.78
2022-10-17T09:19:36.621Z,99.90
2022-10-17T09:22:09.681Z,99.98
2022-10-17T09:24:53.314Z,99.97
2022-10-17T09:27:35.407Z,99.91
2022-10-17T09:30:40.431Z,99.95
2022-10-17T09:33:23.091Z,99.93
2022-10-17T09:36:00.325Z,99.65
2022-10-17T09:38:36.034Z,99.79
2022-10-17T09:41:02.867Z,99.73
2022-10-17T09:43:29.355Z,99.79
2022-10-17T09:46:20.382Z,99.74
2022-10-17T09:48:53.900Z,99.77
2022-10-17T09:51:26.104Z,99.87
2022-10-17T09:53:59.791Z,99.88
2022-10-17T09:56:26.273Z,99.93
2022-10-17T09:58:57.219Z,99.83
2022-10-17T10:01:29.359Z,100.00
2022-10-17T10:04:11.868Z,99.87
2022-10-17T10:06:39.509Z,100.00
2022-10-17T10:09:07.337Z,100.00
2022-10-17T10:11:56.602Z,100.00
2022-10-17T10:14:28.949Z,100.00
2022-10-17T10:16:56.048Z,100.00
2022-10-17T10:19:32.629Z,100.00
2022-10-17T10:22:03.457Z,99.95
2022-10-17T10:24:31.172Z,99.98
2022-10-17T10:27:00.869Z,100.00
2022-10-17T10:29:44.517Z,100.00
2022-10-17T10:32:28.601Z,100.00
2022-10-17T10:35:18.917Z,100.00
2022-10-17T10:37:49.788Z,100.00
2022-10-17T10:40:39.049Z,100.00
2022-10-17T10:43:06.355Z,100.00
2022-10-17T10:45:47.672Z,100.00
2022-10-17T10:48:25.438Z,100.00
2022-10-17T10:50:51.763Z,100.00
2022-10-17T10:53:45.634Z,100.00
2022-10-17T10:56:21.099Z,100.00
2022-10-17T10:59:26.013Z,100.00
2022-10-17T11:02:17.572Z,100.00
2022-10-17T11:05:01.907Z,100.00
2022-10-17T11:08:03.916Z,100.00
2022-10-17T11:11:13.694Z,100.00
2022-10-17T11:13:47.778Z,100.00
2022-10-17T11:16:40.072Z,100.00
2022-10-17T11:19:47.384Z,100.00
2022-10-17T11:22:19.029Z,100.00
2022-10-17T11:25:22.216Z,100.00
2022-10-17T11:27:48.689Z,100.00
2022-10-17T11:30:16.535Z,100.00
2022-10-17T11:32:48.899Z,100.00
2022-10-17T11:35:23.608Z,100.00
2022-10-17T11:38:07.879Z,100.00
2022-10-17T11:40:38.644Z,100.00
2022-10-17T11:43:23.151Z,100.00
2022-10-17T11:45:56.016Z,100.00
2022-10-17T11:48:28.184Z,100.00
2022-10-17T11:54:17.663Z,100.00
2022-10-17T11:57:28.851Z,100.00
2022-10-17T12:00:39.280Z,100.00
2022-10-17T12:03:26.808Z,100.00
2022-10-17T12:06:15.014Z,100.00
2022-10-17T12:08:54.581Z,100.00
2022-10-17T12:11:41.875Z,100.00
2022-10-17T12:14:46.594Z,100.00
2022-10-17T12:17:39.299Z,100.00
2022-10-17T12:20:21.304Z,100.00
2022-10-17T12:23:21.844Z,100.00
2022-10-17T12:26:09.586Z,100.00
2022-10-17T12:28:49.528Z,100.00
2022-10-17T12:31:17.409Z,100.00
2022-10-17T12:33:53.135Z,100.00
2022-10-17T12:36:22.502Z,100.00
2022-10-17T12:39:11.741Z,100.00
2022-10-17T12:41:38.073Z,100.00
2022-10-17T12:44:28.738Z,100.00
2022-10-17T12:47:05.033Z,100.00
2022-10-17T12:49:48.809Z,100.00
2022-10-17T12:52:27.106Z,100.00
2022-10-17T12:55:11.385Z,100.00
2022-10-17T12:57:54.549Z,100.00
2022-10-17T13:01:11.770Z,100.00
2022-10-17T13:03:44.542Z,100.00
2022-10-17T13:06:23.638Z,100.00
2022-10-17T13:09:34.845Z,100.00
2022-10-17T13:12:25.233Z,100.00
2022-10-17T13:14:54.636Z,100.00
2022-10-17T13:17:27.820Z,100.00
2022-10-17T13:20:03.344Z,100.00
2022-10-17T13:22:32.782Z,100.00
2022-10-17T13:25:17.239Z,100.00
2022-10-17T13:28:50.259Z,100.00
2022-10-17T13:31:43.904Z,100.00
2022-10-17T13:34:41.356Z,100.00
2022-10-17T13:37:12.836Z,100.00
2022-10-17T13:39:55.312Z,100.00
2022-10-17T13:42:27.350Z,100.00
2022-10-17T13:44:55.006Z,100.00
2022-10-17T13:47:27.675Z,100.00
2022-10-17T13:50:43.231Z,100.00
2022-10-17T13:53:16.419Z,100.00
2022-10-17T13:56:29.891Z,100.00
2022-10-17T13:59:00.237Z,100.00
2022-10-17T14:01:29.196Z,99.87
2022-10-17T14:04:07.745Z,99.96
2022-10-17T14:06:44.074Z,99.80
2022-10-17T14:09:25.592Z,99.89
2022-10-17T14:12:12.514Z,99.88
2022-10-17T14:15:05.048Z,99.79
2022-10-17T14:17:29.998Z,99.84
2022-10-17T14:23:04.526Z,99.83
2022-10-17T14:25:39.498Z,99.79
2022-10-17T14:28:12.851Z,99.53
2022-10-17T14:30:57.297Z,99.65
2022-10-17T14:33:28.132Z,99.64
2022-10-17T14:35:56.684Z,99.53
2022-10-17T14:38:24.405Z,99.60
2022-10-17T14:41:29.710Z,99.68
2022-10-17T14:43:57.153Z,99.52
2022-10-17T14:46:23.704Z,99.40
2022-10-17T14:48:56.282Z,99.37
2022-10-17T14:51:22.659Z,99.31
2022-10-17T14:54:05.607Z,99.45
2022-10-17T14:56:55.932Z,99.21
2022-10-17T14:59:51.446Z,99.09
2022-10-17T15:02:11.119Z,98.96
2022-10-17T15:04:39.600Z,98.76
2022-10-17T15:07:22.096Z,98.94
2022-10-17T15:09:51.376Z,98.81
2022-10-17T15:12:22.352Z,99.03
2022-10-17T15:14:48.746Z,98.85
2022-10-17T15:21:38.397Z,98.96
2022-10-17T15:24:07.077Z,98.91
2022-10-17T15:27:32.690Z,98.92
2022-10-17T15:29:59.579Z,99.11
2022-10-17T15:32:28.016Z,98.75
2022-10-17T15:34:54.416Z,98.89
2022-10-17T15:37:25.291Z,98.86
2022-10-17T15:39:54.633Z,99.12
2022-10-17T15:42:26.959Z,98.83
2022-10-17T15:44:55.695Z,98.63
2022-10-17T15:47:30.977Z,98.86
2022-10-17T15:49:57.666Z,98.75
2022-10-17T15:52:24.336Z,98.44
2022-10-17T15:54:51.104Z,98.19
2022-10-17T15:57:38.469Z,98.26
2022-10-17T16:00:16.233Z,98.26
2022-10-17T16:02:50.744Z,98.17
2022-10-17T16:05:30.421Z,98.30
2022-10-17T16:07:57.809Z,98.19
2022-10-17T16:10:33.424Z,98.24
2022-10-17T16:13:17.556Z,98.33
2022-10-17T16:15:43.963Z,97.98
2022-10-17T16:18:10.331Z,98.10
2022-10-17T16:20:37.917Z,97.84
2022-10-17T16:23:05.374Z,98.15
2022-10-17T16:25:32.893Z,97.53
2022-10-17T16:28:08.484Z,97.88
2022-10-17T16:30:50.279Z,98.02
2022-10-17T16:33:21.833Z,97.92
2022-10-17T16:35:55.403Z,97.73
2022-10-17T16:38:27.945Z,98.11
2022-10-17T16:40:54.404Z,97.74
2022-10-17T16:43:50.606Z,97.83
2022-10-17T16:46:27.770Z,97.79
2022-10-17T16:48:57.873Z,98.05
2022-10-17T16:51:31.304Z,98.12
2022-10-17T16:54:18.081Z,97.95
2022-10-17T16:56:59.852Z,97.66
2022-10-17T16:59:30.412Z,97.70
2022-10-17T17:02:03.229Z,97.71
2022-10-17T17:04:40.152Z,97.72
2022-10-17T17:07:11.722Z,97.52
2022-10-17T17:09:39.273Z,97.47
2022-10-17T17:12:06.335Z,97.68
2022-10-17T17:14:42.944Z,98.11
2022-10-17T17:18:02.641Z,97.76
2022-10-17T17:20:32.724Z,97.49
2022-10-17T17:22:59.119Z,97.42
2022-10-17T17:25:26.608Z,97.62
2022-10-17T17:28:02.926Z,97.69
2022-10-17T17:30:29.833Z,97.89
2022-10-17T17:33:01.573Z,97.75
2022-10-17T17:35:38.567Z,97.91
2022-10-17T17:38:07.565Z,97.45
2022-10-17T17:40:34.611Z,97.72
2022-10-17T17:43:07.269Z,98.05
2022-10-17T17:45:34.719Z,97.55
2022-10-17T17:48:20.410Z,97.47
2022-10-17T17:50:47.037Z,97.67
2022-10-17T17:53:15.781Z,97.41
2022-10-17T17:55:47.110Z,97.69
2022-10-17T17:58:13.860Z,97.78
2022-10-17T18:00:40.627Z,97.36
2022-10-17T18:03:07.613Z,97.30
2022-10-17T18:05:46.029Z,97.69
2022-10-17T18:08:12.465Z,97.48
2022-10-17T18:10:38.859Z,97.51
2022-10-17T18:13:12.240Z,97.28
2022-10-17T18:15:41.565Z,97.50
2022-10-17T18:18:07.890Z,97.44
2022-10-17T18:20:35.285Z,97.41
2022-10-17T18:23:21.361Z,97.53
2022-10-17T18:26:00.872Z,97.35
2022-10-17T18:28:27.789Z,97.65
2022-10-17T18:30:54.485Z,97.59
2022-10-17T18:34:00.190Z,97.60
2022-10-17T18:36:39.739Z,97.50
2022-10-17T18:39:06.120Z,97.41
2022-10-17T18:41:39.778Z,97.55
2022-10-17T18:44:47.959Z,97.67
2022-10-17T18:47:14.327Z,97.31
2022-10-17T18:49:40.928Z,97.41
2022-10-17T18:52:07.496Z,97.38
2022-10-17T18:54:39.979Z,97.25
2022-10-17T18:57:06.910Z,97.28
2022-10-17T18:59:33.399Z,97.17
2022-10-17T19:02:05.144Z,97.25
2022-10-17T19:04:31.605Z,97.49
2022-10-17T19:07:09.197Z,97.25
2022-10-17T19:09:41.472Z,97.26
2022-10-17T19:12:08.928Z,96.96
2022-10-17T19:14:35.559Z,97.30
2022-10-17T19:17:02.635Z,96.85
2022-10-17T19:19:49.885Z,96.88
2022-10-17T19:22:20.477Z,97.02
2022-10-17T19:26:02.790Z,97.12
2022-10-17T19:28:29.602Z,97.19
2022-10-17T19:30:56.028Z,97.19
2022-10-17T19:33:22.451Z,97.28
2022-10-17T19:35:56.675Z,96.71
2022-10-17T19:38:23.108Z,97.09
2022-10-17T19:40:49.660Z,97.01
2022-10-17T19:43:18.529Z,97.10
2022-10-17T19:45:58.172Z,97.24
2022-10-17T19:48:25.384Z,96.70
2022-10-17T19:50:52.830Z,96.90
2022-10-17T19:53:21.823Z,96.95
2022-10-17T19:55:50.165Z,96.81
2022-10-17T19:58:16.650Z,96.75
2022-10-17T20:00:51.165Z,96.85
2022-10-17T20:03:18.639Z,97.00
2022-10-17T20:05:45.997Z,97.17
2022-10-17T20:08:13.018Z,96.96
2022-10-17T20:10:39.915Z,97.10
2022-10-17T20:13:06.323Z,97.21
2022-10-17T20:15:32.728Z,97.27
2022-10-17T20:17:59.318Z,97.37
2022-10-17T20:20:25.688Z,96.92
2022-10-17T20:22:52.052Z,97.21
2022-10-17T20:25:18.594Z,97.04
2022-10-17T20:27:45.059Z,97.17
2022-10-17T20:30:11.848Z,97.01
2022-10-17T20:32:39.983Z,97.34
2022-10-17T20:35:07.412Z,96.92
2022-10-17T20:37:39.886Z,96.78
2022-10-17T20:40:37.976Z,97.33
2022-10-17T20:42:55.601Z,97.03
2022-10-17T20:45:37.315Z,97.20
2022-10-17T20:48:17.409Z,97.16
2022-10-17T20:50:44.386Z,97.20
2022-10-17T20:53:37.331Z,96.86
2022-10-17T20:56:08.794Z,97.33
2022-10-17T20:58:35.843Z,97.29
2022-10-17T21:01:11.527Z,97.09
2022-10-17T21:03:42.395Z,97.49
2022-10-17T21:06:12.432Z,97.38
2022-10-17T21:08:38.863Z,97.55
2022-10-17T21:11:15.747Z,97.22
2022-10-17T21:13:42.484Z,97.27
2022-10-17T21:16:13.819Z,97.22
2022-10-17T21:18:56.455Z,97.42
2022-10-17T21:21:26.787Z,97.38
2022-10-17T21:23:56.581Z,97.08
2022-10-17T21:26:40.559Z,97.23
2022-10-17T21:29:12.621Z,97.38
2022-10-17T21:32:33.480Z,97.29
2022-10-17T21:35:10.104Z,96.96
2022-10-17T21:37:36.545Z,97.00
2022-10-17T21:40:03.131Z,96.92
2022-10-17T21:42:29.859Z,96.75
2022-10-17T21:44:56.435Z,96.83
2022-10-17T21:47:25.522Z,96.91
2022-10-17T21:49:54.005Z,96.92
2022-10-17T21:52:20.377Z,96.87
2022-10-17T21:54:46.722Z,96.98
2022-10-17T21:57:13.113Z,96.95
2022-10-17T21:59:39.938Z,96.85
2022-10-17T22:02:06.345Z,97.11
2022-10-17T22:04:48.202Z,96.93
2022-10-17T22:07:19.581Z,96.72
2022-10-17T22:09:45.945Z,96.92
2022-10-17T22:12:40.547Z,96.94
2022-10-17T22:15:07.557Z,96.64
2022-10-17T22:17:35.975Z,96.76
2022-10-17T22:20:02.357Z,96.93
2022-10-17T22:22:39.095Z,96.71
2022-10-17T22:25:06.079Z,96.39
2022-10-17T22:27:40.500Z,96.67
2022-10-17T22:30:23.407Z,96.81
2022-10-17T22:32:49.751Z,96.98
2022-10-17T22:35:16.131Z,96.53
2022-10-17T22:37:42.527Z,96.35
2022-10-17T22:40:09.214Z,96.64
2022-10-17T22:42:38.751Z,96.61
2022-10-17T22:45:20.327Z,96.57
2022-10-17T22:47:53.987Z,96.88
2022-10-17T22:50:21.632Z,96.94
2022-10-17T22:53:00.997Z,97.03
2022-10-17T22:55:40.773Z,97.30
2022-10-17T22:58:07.234Z,96.50
2022-10-17T23:00:39.692Z,96.79
2022-10-17T23:03:06.063Z,96.85
2022-10-17T23:05:32.391Z,96.78
2022-10-17T23:07:58.907Z,97.00
2022-10-17T23:10:25.337Z,96.73
2022-10-17T23:12:51.688Z,97.08
2022-10-17T23:15:18.191Z,96.73
2022-10-17T23:17:44.547Z,96.65
2022-10-17T23:20:11.059Z,96.46
2022-10-17T23:22:37.501Z,96.74
2022-10-17T23:25:04.128Z,96.72
2022-10-17T23:27:36.809Z,96.91
2022-10-17T23:30:04.543Z,96.88
2022-10-17T23:32:31.167Z,96.97
2022-10-17T23:35:05.760Z,97.07
2022-10-17T23:37:32.681Z,96.84
2022-10-17T23:39:59.215Z,97.02
2022-10-17T23:42:25.701Z,96.75
2022-10-17T23:44:56.162Z,97.07
2022-10-17T23:47:22.516Z,96.94
2022-10-17T23:49:49.063Z,97.55
2022-10-17T23:52:20.558Z,97.09
2022-10-17T23:54:46.932Z,97.12
2022-10-17T23:57:23.716Z,96.88
2022-10-17T23:59:50.071Z,97.70
